Time;durP1;ratioP1;P1;durP2;ratioP2;P2;SDS_P1;SDS_P2;PMS_P1;PMS_P2;Temp;Humidity;BMP_temperature;BMP_pressure;BME280_temperature;BME280_humidity;BME280_pressure;Samples;Min_cycle;Max_cycle;Signal;HPM_P1;HPM_P2
2022/08/14 00:01:31;;;;;;;;;;;29.30;78.30;;;;;;5035388;28;19959;-60
2022/08/14 00:03:58;;;;;;;;;;;29.30;78.30;;;;;;5017045;28;20599;-58
2022/08/14 00:06:27;;;;;;;;;;;29.20;78.30;;;;;;5024441;28;19925;-63
2022/08/14 00:08:55;;;;;;;;;;;29.20;78.30;;;;;;5038151;28;19932;-63
2022/08/14 00:11:26;;;;;;;;;;;29.20;78.30;;;;;;5040673;28;19937;-62
2022/08/14 00:13:59;;;;;;;;;;;29.20;78.30;;;;;;5047346;28;20275;-58
2022/08/14 00:16:28;;;;;;;;;;;29.20;78.30;;;;;;5041019;28;19940;-60
2022/08/14 00:19:11;;;;;;;;;;;29.20;78.30;;;;;;5025084;28;19929;-57
2022/08/14 00:21:46;;;;;;;;;;;29.20;78.30;;;;;;5038860;28;19925;-59
2022/08/14 00:24:17;;;;;;;;;;;29.20;78.30;;;;;;5026361;28;19951;-63
2022/08/14 00:26:56;;;;;;;;;;;29.20;78.30;;;;;;5032890;28;19936;-59
2022/08/14 00:29:23;;;;;;;;;;;29.20;78.30;;;;;;5019222;28;19928;-62
2022/08/14 00:31:51;;;;;;;;;;;29.20;78.30;;;;;;5003788;28;19929;-56
2022/08/14 00:34:23;;;;;;;;;;;29.20;78.30;;;;;;5030513;28;19937;-62
2022/08/14 00:37:10;;;;;;;;;;;29.20;78.30;;;;;;5033371;28;19929;-62
2022/08/14 00:39:38;;;;;;;;;;;29.20;78.30;;;;;;5036435;28;20629;-59
2022/08/14 00:42:06;;;;;;;;;;;29.20;78.30;;;;;;5043585;28;19925;-60
2022/08/14 00:44:47;;;;;;;;;;;29.20;78.30;;;;;;5016171;28;19936;-61
2022/08/14 00:47:16;;;;;;;;;;;29.20;78.30;;;;;;5020670;28;19975;-60
2022/08/14 00:49:44;;;;;;;;;;;29.20;78.40;;;;;;5037553;28;20154;-60
2022/08/14 00:52:12;;;;;;;;;;;29.20;78.40;;;;;;5013144;28;19929;-57
2022/08/14 00:54:45;;;;;;;;;;;29.20;78.30;;;;;;5019077;28;19929;-57
2022/08/14 00:57:12;;;;;;;;;;;29.20;78.40;;;;;;5021216;28;20404;-63
2022/08/14 00:59:40;;;;;;;;;;;29.20;78.40;;;;;;5034189;28;19925;-57
2022/08/14 01:02:07;;;;;;;;;;;29.20;78.40;;;;;;5033816;28;19936;-58
2022/08/14 01:04:37;;;;;;;;;;;29.20;78.50;;;;;;5041181;28;19928;-64
2022/08/14 01:07:21;;;;;;;;;;;29.20;78.40;;;;;;5037450;28;19928;-62
2022/08/14 01:09:49;;;;;;;;;;;29.20;78.50;;;;;;5036359;28;19935;-61
2022/08/14 01:12:17;;;;;;;;;;;29.10;78.40;;;;;;5023363;28;19929;-60
2022/08/14 01:14:57;;;;;;;;;;;29.20;78.40;;;;;;5038228;28;19929;-62
2022/08/14 01:21:02;;;;;;;;;;;29.10;78.40;;;;;;5019374;28;19925;-59
2022/08/14 01:23:10;;;;;;;;;;;29.20;78.50;;;;;;5042486;28;19948;-57
2022/08/14 01:25:48;;;;;;;;;;;29.10;79.00;;;;;;5021202;28;19936;-59
2022/08/14 01:28:18;;;;;;;;;;;29.10;78.40;;;;;;5027474;28;19929;-62
2022/08/14 01:31:08;;;;;;;;;;;29.10;78.50;;;;;;5036043;28;19935;-61
2022/08/14 01:33:37;;;;;;;;;;;29.20;78.50;;;;;;5014403;28;19936;-59
2022/08/14 01:36:25;;;;;;;;;;;29.10;78.50;;;;;;5020981;28;19925;-61
2022/08/14 01:38:57;;;;;;;;;;;29.10;78.50;;;;;;5021475;28;19936;-58
2022/08/14 01:41:25;;;;;;;;;;;29.10;78.50;;;;;;5041930;28;19925;-60
2022/08/14 01:44:02;;;;;;;;;;;29.10;78.50;;;;;;5013594;28;20480;-60
2022/08/14 01:46:33;;;;;;;;;;;29.10;78.50;;;;;;5026541;28;19925;-60
2022/08/14 01:49:04;;;;;;;;;;;29.10;78.50;;;;;;5028495;28;19929;-61
2022/08/14 01:51:34;;;;;;;;;;;29.10;78.50;;;;;;5016948;28;19935;-58
2022/08/14 01:54:08;;;;;;;;;;;29.10;78.50;;;;;;5030720;28;19933;-60
2022/08/14 01:56:39;;;;;;;;;;;29.10;78.50;;;;;;5041985;28;19932;-63
2022/08/14 01:59:08;;;;;;;;;;;29.10;78.50;;;;;;5041605;28;19926;-59
2022/08/14 02:01:45;;;;;;;;;;;29.10;78.50;;;;;;5043586;28;19936;-61
2022/08/14 02:04:20;;;;;;;;;;;29.10;78.60;;;;;;5039909;28;20101;-61
2022/08/14 02:07:08;;;;;;;;;;;29.10;78.50;;;;;;5043902;28;19932;-60
2022/08/14 02:09:43;;;;;;;;;;;29.10;78.50;;;;;;5045595;28;21299;-61
2022/08/14 02:12:23;;;;;;;;;;;29.10;78.50;;;;;;5035606;28;20396;-61
2022/08/14 02:14:55;;;;;;;;;;;29.10;78.50;;;;;;5016938;28;19929;-59
2022/08/14 02:17:27;;;;;;;;;;;29.10;78.60;;;;;;5036044;28;19933;-60
2022/08/14 02:19:57;;;;;;;;;;;29.10;78.60;;;;;;5035333;28;20388;-61
2022/08/14 02:22:25;;;;;;;;;;;29.00;78.50;;;;;;5030532;28;20005;-59
2022/08/14 02:25:12;;;;;;;;;;;29.00;78.50;;;;;;5022523;28;19929;-58
2022/08/14 02:27:44;;;;;;;;;;;29.00;78.50;;;;;;5029656;28;19940;-60
2022/08/14 02:30:32;;;;;;;;;;;29.00;78.50;;;;;;5020608;28;19924;-61
2022/08/14 02:33:00;;;;;;;;;;;29.00;78.60;;;;;;5031464;28;19932;-60
2022/08/14 02:35:27;;;;;;;;;;;29.00;78.60;;;;;;5039406;28;19940;-62
2022/08/14 02:37:59;;;;;;;;;;;29.00;78.60;;;;;;5033863;28;19929;-60
2022/08/14 02:40:31;;;;;;;;;;;29.00;78.60;;;;;;5022006;28;19929;-58
2022/08/14 02:43:00;;;;;;;;;;;29.00;78.60;;;;;;5020845;28;20343;-61
2022/08/14 02:45:31;;;;;;;;;;;29.00;78.60;;;;;;5023297;28;19928;-58
2022/08/14 02:48:11;;;;;;;;;;;29.00;78.60;;;;;;5037685;28;19928;-59
2022/08/14 02:50:58;;;;;;;;;;;29.00;78.60;;;;;;5029088;28;19937;-62
2022/08/14 02:53:28;;;;;;;;;;;29.00;78.60;;;;;;5043222;28;20392;-60
2022/08/14 02:55:56;;;;;;;;;;;29.00;78.60;;;;;;5038047;28;19929;-58
2022/08/14 02:58:31;;;;;;;;;;;29.00;78.70;;;;;;5022718;28;19925;-61
2022/08/14 03:00:59;;;;;;;;;;;29.00;78.70;;;;;;5043875;28;20316;-58
2022/08/14 03:03:28;;;;;;;;;;;29.00;78.70;;;;;;5013246;28;19956;-61
2022/08/14 03:05:58;;;;;;;;;;;29.00;78.70;;;;;;5041258;28;19929;-61
2022/08/14 03:08:30;;;;;;;;;;;29.00;78.70;;;;;;5033070;28;19929;-59
2022/08/14 03:11:05;;;;;;;;;;;29.00;78.70;;;;;;5028136;28;19936;-62
2022/08/14 03:13:35;;;;;;;;;;;29.00;78.70;;;;;;5017363;28;19933;-62
2022/08/14 03:16:03;;;;;;;;;;;29.00;78.70;;;;;;5033712;28;19929;-60
2022/08/14 03:18:46;;;;;;;;;;;29.00;78.70;;;;;;5036178;28;19932;-60
2022/08/14 03:21:20;;;;;;;;;;;28.90;78.70;;;;;;5038432;28;19928;-58
2022/08/14 03:23:49;;;;;;;;;;;29.00;78.80;;;;;;5020222;28;19929;-61
2022/08/14 03:26:18;;;;;;;;;;;29.00;78.80;;;;;;5021244;28;19952;-60
2022/08/14 03:28:57;;;;;;;;;;;29.00;78.80;;;;;;5019159;28;19929;-60
2022/08/14 03:31:27;;;;;;;;;;;28.90;78.70;;;;;;5041773;28;19932;-59
2022/08/14 03:33:56;;;;;;;;;;;28.90;78.70;;;;;;5024122;28;19928;-59
2022/08/14 03:36:27;;;;;;;;;;;28.90;78.70;;;;;;5033817;28;20336;-60
2022/08/14 03:39:14;;;;;;;;;;;28.90;79.30;;;;;;5021394;28;19962;-61
2022/08/14 03:41:55;;;;;;;;;;;28.90;78.70;;;;;;5032442;28;19929;-58
2022/08/14 03:44:27;;;;;;;;;;;28.90;78.70;;;;;;5021932;28;21170;-59
2022/08/14 03:47:15;;;;;;;;;;;28.90;78.80;;;;;;5007214;28;20522;-60
2022/08/14 03:49:44;;;;;;;;;;;28.90;78.80;;;;;;5037175;28;19929;-58
2022/08/14 03:52:16;;;;;;;;;;;28.90;78.80;;;;;;5041396;28;19935;-58
2022/08/14 03:55:08;;;;;;;;;;;28.90;78.80;;;;;;5019471;28;19964;-58
2022/08/14 03:57:35;;;;;;;;;;;28.90;78.80;;;;;;5015383;28;19940;-61
2022/08/14 04:00:06;;;;;;;;;;;28.90;78.80;;;;;;5031951;28;19933;-60
2022/08/14 04:02:40;;;;;;;;;;;28.90;78.80;;;;;;5017111;28;20463;-60
2022/08/14 04:05:13;;;;;;;;;;;28.90;78.80;;;;;;5004285;28;19940;-57
2022/08/14 04:07:43;;;;;;;;;;;28.90;78.80;;;;;;5030681;28;19963;-62
2022/08/14 04:10:30;;;;;;;;;;;28.90;78.80;;;;;;5014527;28;19929;-58
2022/08/14 04:13:03;;;;;;;;;;;28.80;78.80;;;;;;5018352;28;19929;-59
2022/08/14 04:15:33;;;;;;;;;;;28.80;78.80;;;;;;5048782;28;19932;-58
2022/08/14 04:18:21;;;;;;;;;;;28.80;78.80;;;;;;5048428;28;19944;-61
2022/08/14 04:20:48;;;;;;;;;;;28.80;78.80;;;;;;5044238;28;20316;-59
2022/08/14 04:23:22;;;;;;;;;;;28.80;78.80;;;;;;5020642;28;19932;-60
2022/08/14 04:25:59;;;;;;;;;;;28.80;78.80;;;;;;5039906;28;20312;-62
2022/08/14 04:28:27;;;;;;;;;;;28.80;78.80;;;;;;5019079;28;19932;-60
2022/08/14 04:31:15;;;;;;;;;;;28.80;78.80;;;;;;5024779;28;19936;-61
2022/08/14 04:33:43;;;;;;;;;;;28.80;78.80;;;;;;5039863;28;19929;-61
2022/08/14 04:36:10;;;;;;;;;;;28.80;78.80;;;;;;5046988;28;19932;-59
2022/08/14 04:43:34;;;;;;;;;;;28.80;78.80;;;;;;5033174;28;19936;-61
2022/08/14 04:44:19;;;;;;;;;;;28.80;78.90;;;;;;5022974;28;19932;-60
2022/08/14 04:49:50;;;;;;;;;;;28.80;78.90;;;;;;5039873;28;19929;-60
2022/08/14 04:52:24;;;;;;;;;;;28.80;78.90;;;;;;5036039;28;19928;-60
2022/08/14 04:54:51;;;;;;;;;;;28.80;78.90;;;;;;5023572;28;20320;-62
2022/08/14 04:57:21;;;;;;;;;;;28.80;78.90;;;;;;5035884;28;19929;-61
2022/08/14 04:59:51;;;;;;;;;;;28.80;78.90;;;;;;5020499;28;19929;-60
2022/08/14 05:02:24;;;;;;;;;;;28.80;78.90;;;;;;5032698;28;19929;-61
2022/08/14 05:04:51;;;;;;;;;;;28.80;78.90;;;;;;5027145;28;20387;-58
2022/08/14 05:07:24;;;;;;;;;;;28.80;79.00;;;;;;5055571;28;20415;-60
2022/08/14 05:10:12;;;;;;;;;;;28.80;78.90;;;;;;5049945;28;19935;-61
2022/08/14 05:12:47;;;;;;;;;;;28.80;79.00;;;;;;5025468;28;19935;-62
2022/08/14 05:15:36;;;;;;;;;;;28.80;79.00;;;;;;5038926;28;19928;-61
2022/08/14 05:18:13;;;;;;;;;;;28.80;79.00;;;;;;5048001;28;19936;-62
2022/08/14 05:21:02;;;;;;;;;;;28.80;79.00;;;;;;5038692;28;20309;-60
2022/08/14 05:23:50;;;;;;;;;;;28.80;79.00;;;;;;5042707;28;19928;-60
2022/08/14 05:26:20;;;;;;;;;;;28.80;79.00;;;;;;5022013;28;20317;-60
2022/08/14 05:28:47;;;;;;;;;;;28.70;78.90;;;;;;5041856;28;19936;-61
2022/08/14 05:31:16;;;;;;;;;;;28.80;79.00;;;;;;5035192;28;20908;-56
2022/08/14 05:33:48;;;;;;;;;;;28.80;79.00;;;;;;5042765;28;19952;-59
2022/08/14 05:36:24;;;;;;;;;;;28.70;78.90;;;;;;5018277;28;19940;-58
2022/08/14 05:38:53;;;;;;;;;;;28.80;78.90;;;;;;5033129;28;19936;-59
2022/08/14 05:41:21;;;;;;;;;;;28.80;78.90;;;;;;5026026;28;19940;-59
2022/08/14 05:43:49;;;;;;;;;;;28.80;78.80;;;;;;5037103;28;19928;-61
2022/08/14 05:46:18;;;;;;;;;;;28.80;78.80;;;;;;5041600;28;20411;-59
2022/08/14 05:48:49;;;;;;;;;;;28.80;78.80;;;;;;5043028;28;19928;-58
2022/08/14 05:51:16;;;;;;;;;;;28.80;78.80;;;;;;5035729;28;19929;-60
2022/08/14 05:53:44;;;;;;;;;;;28.80;78.90;;;;;;5025448;28;19925;-61
2022/08/14 05:56:31;;;;;;;;;;;28.80;78.90;;;;;;5040353;28;20597;-62
2022/08/14 05:59:02;;;;;;;;;;;28.80;79.00;;;;;;5021376;28;19936;-61
2022/08/14 06:01:29;;;;;;;;;;;28.80;79.00;;;;;;5044558;28;19932;-61
2022/08/14 06:03:58;;;;;;;;;;;28.80;79.00;;;;;;5040961;28;19940;-58
2022/08/14 06:06:25;;;;;;;;;;;28.80;79.00;;;;;;5027413;28;20268;-60
2022/08/14 06:08:52;;;;;;;;;;;28.80;79.00;;;;;;5046000;28;20289;-60
2022/08/14 06:11:20;;;;;;;;;;;28.80;79.00;;;;;;5040177;28;19929;-56
2022/08/14 06:13:57;;;;;;;;;;;28.80;79.00;;;;;;5037636;28;19935;-60
2022/08/14 06:16:24;;;;;;;;;;;28.80;79.00;;;;;;5038361;28;19925;-59
2022/08/14 06:18:52;;;;;;;;;;;28.70;78.90;;;;;;5040685;28;20308;-59
2022/08/14 06:21:22;;;;;;;;;;;28.80;79.00;;;;;;5016250;28;20487;-58
2022/08/14 06:23:50;;;;;;;;;;;28.80;79.00;;;;;;5024722;28;19929;-56
2022/08/14 06:26:17;;;;;;;;;;;28.80;79.10;;;;;;5023413;28;19925;-60
2022/08/14 06:28:49;;;;;;;;;;;28.70;79.00;;;;;;5033814;28;20415;-59
2022/08/14 06:31:20;;;;;;;;;;;28.80;79.00;;;;;;5025453;28;19929;-60
2022/08/14 06:33:49;;;;;;;;;;;28.80;79.00;;;;;;5012527;28;19925;-58
2022/08/14 06:36:37;;;;;;;;;;;28.80;79.00;;;;;;5039148;28;19929;-59
2022/08/14 06:39:05;;;;;;;;;;;28.80;79.10;;;;;;5018025;28;20036;-60
2022/08/14 06:41:37;;;;;;;;;;;28.70;79.00;;;;;;5039459;28;19937;-57
2022/08/14 06:44:24;;;;;;;;;;;28.80;79.10;;;;;;5035187;28;19926;-58
2022/08/14 06:46:59;;;;;;;;;;;28.80;79.10;;;;;;5020335;28;19928;-60
2022/08/14 06:49:27;;;;;;;;;;;28.80;79.10;;;;;;5033250;28;19929;-56
2022/08/14 06:51:56;;;;;;;;;;;28.70;79.10;;;;;;5035776;28;19933;-59
2022/08/14 06:54:24;;;;;;;;;;;28.80;79.10;;;;;;5028896;28;19929;-60
2022/08/14 06:56:57;;;;;;;;;;;28.80;79.10;;;;;;5025066;28;19936;-56
2022/08/14 06:59:25;;;;;;;;;;;28.80;79.10;;;;;;5017773;28;20355;-55
2022/08/14 07:07:33;;;;;;;;;;;28.80;79.20;;;;;;5041897;28;19933;-60
2022/08/14 07:10:03;;;;;;;;;;;28.80;79.30;;;;;;5022983;28;19925;-58
2022/08/14 07:12:31;;;;;;;;;;;28.80;79.20;;;;;;5040193;28;20312;-56
2022/08/14 07:15:18;;;;;;;;;;;28.80;79.20;;;;;;5037053;28;19925;-59
2022/08/14 07:17:47;;;;;;;;;;;28.80;79.20;;;;;;5051950;28;19933;-60
2022/08/14 07:20:20;;;;;;;;;;;28.90;79.30;;;;;;5048003;28;19935;-60
2022/08/14 07:22:59;;;;;;;;;;;28.90;79.30;;;;;;5042252;28;19948;-60
2022/08/14 07:25:38;;;;;;;;;;;28.90;79.40;;;;;;5049460;28;19929;-60
2022/08/14 07:28:13;;;;;;;;;;;28.90;79.40;;;;;;5035825;28;19937;-60
2022/08/14 07:30:48;;;;;;;;;;;28.90;79.40;;;;;;5050221;28;19926;-58
2022/08/14 07:33:19;;;;;;;;;;;28.90;79.40;;;;;;5047339;28;20411;-59
2022/08/14 07:35:56;;;;;;;;;;;28.90;79.40;;;;;;5043316;28;19931;-61
2022/08/14 07:38:26;;;;;;;;;;;28.90;79.40;;;;;;5044905;28;19925;-61
2022/08/14 07:41:01;;;;;;;;;;;28.90;79.40;;;;;;5028361;28;20162;-57
2022/08/14 07:43:32;;;;;;;;;;;29.00;79.50;;;;;;5043286;28;20270;-58
2022/08/14 07:46:00;;;;;;;;;;;28.90;79.40;;;;;;5041260;28;19925;-59
2022/08/14 07:48:28;;;;;;;;;;;29.00;79.50;;;;;;5037534;28;19936;-61
2022/08/14 07:50:56;;;;;;;;;;;28.90;79.40;;;;;;5042905;28;20470;-60
2022/08/14 07:53:37;;;;;;;;;;;28.90;79.40;;;;;;5037556;28;20596;-61
2022/08/14 07:56:09;;;;;;;;;;;28.90;79.40;;;;;;5040625;28;19940;-58
2022/08/14 07:58:56;;;;;;;;;;;29.00;79.50;;;;;;5052003;28;19943;-60
2022/08/14 08:01:25;;;;;;;;;;;29.00;79.70;;;;;;5036849;28;19925;-57
2022/08/14 08:03:53;;;;;;;;;;;29.00;79.50;;;;;;5030248;28;20376;-58
2022/08/14 08:06:27;;;;;;;;;;;29.00;79.60;;;;;;5027725;28;19929;-58
2022/08/14 08:08:56;;;;;;;;;;;29.00;79.50;;;;;;5033090;28;20404;-55
2022/08/14 08:11:33;;;;;;;;;;;29.00;79.50;;;;;;5045701;28;19928;-61
2022/08/14 08:14:06;;;;;;;;;;;29.00;79.60;;;;;;5026725;28;19929;-59
2022/08/14 08:16:43;;;;;;;;;;;29.00;79.60;;;;;;5036519;28;19925;-56
2022/08/14 08:19:12;;;;;;;;;;;29.10;79.70;;;;;;5021745;28;19929;-60
2022/08/14 08:21:40;;;;;;;;;;;29.00;79.60;;;;;;5026589;28;19932;-55
2022/08/14 08:24:10;;;;;;;;;;;29.00;79.60;;;;;;5032325;28;19929;-55
2022/08/14 08:26:38;;;;;;;;;;;29.00;79.60;;;;;;5047804;28;19928;-57
2022/08/14 08:29:06;;;;;;;;;;;29.00;79.60;;;;;;5035533;28;20404;-58
2022/08/14 08:31:44;;;;;;;;;;;29.10;79.70;;;;;;5020725;28;19936;-58
2022/08/14 08:34:19;;;;;;;;;;;29.00;79.60;;;;;;5035116;28;19936;-56
2022/08/14 08:36:50;;;;;;;;;;;29.00;79.60;;;;;;5035147;28;19959;-58
2022/08/14 08:39:18;;;;;;;;;;;29.10;79.70;;;;;;5037430;28;19935;-56
2022/08/14 08:41:48;;;;;;;;;;;29.10;79.70;;;;;;5037364;28;19925;-57
2022/08/14 08:44:20;;;;;;;;;;;29.10;79.70;;;;;;5040573;28;20324;-60
2022/08/14 08:47:04;;;;;;;;;;;29.10;79.70;;;;;;5019490;28;19933;-59
2022/08/14 08:49:51;;;;;;;;;;;29.10;79.70;;;;;;5032155;28;20480;-58
2022/08/14 08:52:27;;;;;;;;;;;29.10;79.70;;;;;;5022933;28;19936;-60
2022/08/14 08:54:59;;;;;;;;;;;29.10;79.70;;;;;;5024216;28;19936;-60
2022/08/14 08:57:32;;;;;;;;;;;29.10;79.70;;;;;;5017916;28;19928;-54
2022/08/14 09:00:00;;;;;;;;;;;29.10;79.70;;;;;;5049415;28;20404;-57
2022/08/14 09:02:28;;;;;;;;;;;29.10;79.70;;;;;;5037679;28;20017;-58
2022/08/14 09:05:02;;;;;;;;;;;29.10;79.70;;;;;;5025389;28;19925;-58
2022/08/14 09:07:30;;;;;;;;;;;29.10;79.70;;;;;;5035276;28;19925;-59
2022/08/14 09:09:59;;;;;;;;;;;29.10;79.80;;;;;;5031738;28;20397;-59
2022/08/14 09:12:28;;;;;;;;;;;29.10;79.70;;;;;;5041115;28;19929;-58
2022/08/14 09:14:58;;;;;;;;;;;29.10;79.70;;;;;;5038947;28;19929;-60
2022/08/14 09:17:26;;;;;;;;;;;29.10;79.70;;;;;;5030985;28;20400;-56
2022/08/14 09:19:54;;;;;;;;;;;29.10;79.70;;;;;;5020618;28;19936;-60
2022/08/14 09:22:22;;;;;;;;;;;29.10;79.70;;;;;;5030953;28;19932;-56
2022/08/14 09:25:04;;;;;;;;;;;29.10;79.70;;;;;;5034798;28;19929;-59
2022/08/14 09:27:35;;;;;;;;;;;29.10;79.80;;;;;;5042212;28;19929;-56
2022/08/14 09:30:03;;;;;;;;;;;29.20;79.80;;;;;;5027469;28;19940;-58
2022/08/14 09:32:59;;;;;;;;;;;29.10;79.70;;;;;;5022942;28;19942;-58
2022/08/14 09:35:34;;;;;;;;;;;29.10;79.70;;;;;;5045700;28;19929;-58
2022/08/14 09:38:20;;;;;;;;;;;29.10;79.70;;;;;;5038811;28;19929;-59
2022/08/14 09:41:03;;;;;;;;;;;29.10;79.70;;;;;;5035352;28;20352;-61
2022/08/14 09:43:33;;;;;;;;;;;29.10;79.80;;;;;;5037688;28;20400;-58
2022/08/14 09:46:05;;;;;;;;;;;29.10;79.80;;;;;;5018641;28;20389;-56
2022/08/14 09:48:33;;;;;;;;;;;29.10;79.80;;;;;;5024405;28;19929;-58
2022/08/14 09:51:01;;;;;;;;;;;29.10;79.80;;;;;;5020764;28;19940;-58
2022/08/14 09:53:43;;;;;;;;;;;29.10;79.80;;;;;;5018567;28;20400;-55
2022/08/14 09:56:42;;;;;;;;;;;29.10;79.80;;;;;;5036550;28;20436;-60
2022/08/14 09:59:13;;;;;;;;;;;29.20;79.90;;;;;;5032990;28;20377;-59
2022/08/14 10:01:42;;;;;;;;;;;29.10;79.80;;;;;;5020340;28;19936;-58
2022/08/14 10:04:23;;;;;;;;;;;29.10;79.80;;;;;;5021131;28;19948;-55
2022/08/14 10:07:02;;;;;;;;;;;29.10;79.80;;;;;;5020449;28;19936;-58
2022/08/14 10:09:29;;;;;;;;;;;29.10;79.80;;;;;;5032356;28;20403;-58
2022/08/14 10:12:01;;;;;;;;;;;29.10;79.80;;;;;;5039795;28;19936;-60
2022/08/14 10:14:32;;;;;;;;;;;29.10;79.80;;;;;;5042561;28;19929;-58
2022/08/14 10:17:04;;;;;;;;;;;29.20;79.90;;;;;;5043485;28;19935;-59
2022/08/14 10:19:33;;;;;;;;;;;29.20;79.90;;;;;;5033693;28;19929;-58
2022/08/14 10:22:04;;;;;;;;;;;29.20;79.90;;;;;;5044751;28;19936;-56
2022/08/14 10:24:51;;;;;;;;;;;29.10;79.80;;;;;;5034526;28;19931;-56
2022/08/14 10:27:22;;;;;;;;;;;29.20;79.80;;;;;;5031765;28;20389;-59
2022/08/14 10:29:50;;;;;;;;;;;29.20;79.80;;;;;;5036000;28;19932;-57
2022/08/14 10:32:17;;;;;;;;;;;29.20;79.80;;;;;;5037205;28;20476;-58
2022/08/14 10:35:06;;;;;;;;;;;29.20;79.90;;;;;;5035953;28;19933;-60
2022/08/14 10:37:47;;;;;;;;;;;29.20;79.90;;;;;;5035483;28;19948;-57
2022/08/14 10:40:16;;;;;;;;;;;29.20;79.80;;;;;;5035374;28;19925;-59
2022/08/14 10:43:14;;;;;;;;;;;29.20;79.90;;;;;;5042431;28;19933;-55
2022/08/14 10:45:52;;;;;;;;;;;29.20;79.80;;;;;;5029991;28;19932;-57
2022/08/14 10:48:40;;;;;;;;;;;29.20;79.80;;;;;;5013566;28;19948;-57
2022/08/14 10:51:22;;;;;;;;;;;29.20;79.80;;;;;;5025173;28;19932;-56
2022/08/14 10:53:53;;;;;;;;;;;29.20;79.80;;;;;;5033776;28;19952;-57
2022/08/14 10:56:32;;;;;;;;;;;29.20;79.80;;;;;;5022177;28;20124;-58
2022/08/14 10:59:02;;;;;;;;;;;29.20;79.80;;;;;;5039533;28;19932;-57
2022/08/14 11:01:30;;;;;;;;;;;29.20;79.80;;;;;;5032608;28;20051;-57
2022/08/14 11:03:59;;;;;;;;;;;29.20;79.80;;;;;;5042992;28;20016;-57
2022/08/14 11:06:27;;;;;;;;;;;29.20;79.80;;;;;;5033367;28;19935;-58
2022/08/14 11:08:54;;;;;;;;;;;29.20;79.80;;;;;;5016479;28;19933;-59
2022/08/14 11:11:25;;;;;;;;;;;29.20;79.80;;;;;;5031155;28;19926;-57
2022/08/14 11:14:05;;;;;;;;;;;29.20;79.80;;;;;;5031045;28;19929;-60
2022/08/14 11:16:36;;;;;;;;;;;29.20;79.80;;;;;;5028783;28;19937;-60
2022/08/14 11:19:06;;;;;;;;;;;29.20;79.80;;;;;;5015504;28;20291;-59
2022/08/14 11:21:38;;;;;;;;;;;29.20;79.80;;;;;;5033592;28;19959;-57
2022/08/14 11:24:12;;;;;;;;;;;29.20;79.80;;;;;;5032248;28;19925;-54
2022/08/14 11:27:00;;;;;;;;;;;29.20;79.70;;;;;;5034630;28;19925;-57
2022/08/14 11:29:29;;;;;;;;;;;29.20;79.70;;;;;;5033274;28;20017;-60
2022/08/14 11:32:03;;;;;;;;;;;29.20;79.70;;;;;;5032709;28;19936;-59
2022/08/14 11:34:34;;;;;;;;;;;29.20;79.70;;;;;;5036312;28;19925;-59
2022/08/14 11:37:08;;;;;;;;;;;29.30;79.80;;;;;;5045250;28;19929;-58
2022/08/14 11:39:56;;;;;;;;;;;29.30;79.80;;;;;;5029200;28;19936;-60
2022/08/14 11:42:25;;;;;;;;;;;29.20;79.70;;;;;;5041151;28;19925;-61
2022/08/14 11:45:12;;;;;;;;;;;29.20;79.70;;;;;;5040534;28;19926;-59
2022/08/14 11:47:44;;;;;;;;;;;29.20;79.70;;;;;;5039434;28;19925;-62
2022/08/14 11:50:33;;;;;;;;;;;29.20;79.70;;;;;;5037490;28;19929;-59
2022/08/14 11:53:04;;;;;;;;;;;29.20;79.60;;;;;;5038900;28;19929;-60
2022/08/14 11:55:34;;;;;;;;;;;29.30;79.70;;;;;;5032916;28;19929;-61
2022/08/14 11:58:07;;;;;;;;;;;29.20;79.70;;;;;;5017772;28;20369;-61
2022/08/14 12:00:56;;;;;;;;;;;29.20;79.70;;;;;;5036182;28;20036;-60
2022/08/14 12:03:33;;;;;;;;;;;29.20;79.70;;;;;;5022869;28;19940;-59
2022/08/14 12:06:21;;;;;;;;;;;29.20;79.60;;;;;;5043348;28;19944;-60
2022/08/14 12:09:05;;;;;;;;;;;29.30;79.70;;;;;;5046486;28;19931;-58
2022/08/14 12:11:41;;;;;;;;;;;29.20;79.60;;;;;;5041429;28;19956;-58
2022/08/14 12:14:13;;;;;;;;;;;29.30;79.70;;;;;;5034769;28;19929;-64
2022/08/14 12:17:06;;;;;;;;;;;29.30;79.70;;;;;;5033116;28;19925;-59
2022/08/14 12:19:45;;;;;;;;;;;29.30;79.70;;;;;;5044075;28;19932;-59
2022/08/14 12:22:31;;;;;;;;;;;29.30;79.70;;;;;;5035645;28;20251;-59
2022/08/14 12:24:58;;;;;;;;;;;29.30;79.60;;;;;;5044588;28;20392;-61
2022/08/14 12:27:35;;;;;;;;;;;29.30;79.60;;;;;;5032797;28;19929;-61
2022/08/14 12:30:08;;;;;;;;;;;29.30;79.60;;;;;;5039222;28;19936;-59
2022/08/14 12:32:38;;;;;;;;;;;29.30;79.60;;;;;;5040417;28;19929;-59
2022/08/14 12:35:08;;;;;;;;;;;29.30;79.60;;;;;;5033161;28;19939;-62
2022/08/14 12:37:37;;;;;;;;;;;29.30;79.60;;;;;;5022150;28;19925;-59
2022/08/14 12:40:10;;;;;;;;;;;29.30;79.70;;;;;;5047040;28;19932;-61
2022/08/14 12:42:39;;;;;;;;;;;29.30;79.70;;;;;;5012452;28;20459;-58
2022/08/14 12:45:28;;;;;;;;;;;29.30;79.60;;;;;;5024343;28;19929;-61
2022/08/14 12:47:58;;;;;;;;;;;29.30;79.60;;;;;;5024708;28;19925;-59
2022/08/14 12:50:34;;;;;;;;;;;29.30;79.50;;;;;;5049884;28;19925;-60
2022/08/14 12:53:02;;;;;;;;;;;29.30;79.60;;;;;;5042200;28;19936;-58
2022/08/14 12:55:44;;;;;;;;;;;29.30;79.50;;;;;;5051274;28;19929;-57
2022/08/14 12:58:31;;;;;;;;;;;29.30;79.50;;;;;;5034955;28;19925;-61
2022/08/14 13:01:20;;;;;;;;;;;29.40;79.50;;;;;;5027074;28;19925;-60
2022/08/14 13:03:48;;;;;;;;;;;29.40;79.50;;;;;;5045219;28;19929;-63
2022/08/14 13:06:22;;;;;;;;;;;29.40;79.50;;;;;;5039251;28;19936;-59
2022/08/14 13:08:50;;;;;;;;;;;29.40;79.40;;;;;;5034822;28;19940;-59
2022/08/14 13:11:20;;;;;;;;;;;29.40;80.00;;;;;;5037868;28;20432;-61
2022/08/14 13:13:56;;;;;;;;;;;29.50;79.40;;;;;;5015051;28;19929;-61
2022/08/14 13:16:23;;;;;;;;;;;29.50;79.40;;;;;;5037851;28;19929;-60
2022/08/14 13:19:06;;;;;;;;;;;29.50;79.40;;;;;;5018193;28;19936;-60
2022/08/14 13:21:38;;;;;;;;;;;29.50;79.40;;;;;;5039515;28;19925;-55
2022/08/14 13:24:25;;;;;;;;;;;29.50;79.40;;;;;;5032474;28;19925;-58
2022/08/14 13:26:59;;;;;;;;;;;29.50;79.40;;;;;;5020682;28;19929;-58
2022/08/14 13:29:27;;;;;;;;;;;29.50;79.40;;;;;;5041221;28;19929;-59
2022/08/14 13:31:57;;;;;;;;;;;29.60;79.50;;;;;;5014789;28;20479;-59
2022/08/14 13:34:25;;;;;;;;;;;29.60;79.50;;;;;;5020342;28;19928;-56
2022/08/14 13:36:52;;;;;;;;;;;29.60;79.40;;;;;;5012719;28;19925;-61
2022/08/14 13:39:31;;;;;;;;;;;29.70;79.40;;;;;;5030631;28;19929;-60
2022/08/14 13:42:07;;;;;;;;;;;29.70;79.40;;;;;;5041240;28;19929;-61
2022/08/14 13:44:40;;;;;;;;;;;29.70;79.40;;;;;;5037074;28;19944;-56
2022/08/14 13:47:09;;;;;;;;;;;29.80;79.40;;;;;;5038994;28;19937;-60
2022/08/14 13:49:37;;;;;;;;;;;29.80;79.40;;;;;;5035804;28;19932;-60
2022/08/14 13:52:24;;;;;;;;;;;29.90;79.30;;;;;;5026914;28;19936;-59
2022/08/14 13:55:12;;;;;;;;;;;29.90;79.30;;;;;;5039400;28;19929;-59
2022/08/14 13:57:41;;;;;;;;;;;29.90;79.20;;;;;;5022944;28;19936;-57
2022/08/14 14:00:31;;;;;;;;;;;29.90;79.10;;;;;;4998993;28;19936;-58
2022/08/14 14:03:19;;;;;;;;;;;30.00;79.10;;;;;;5034960;28;19929;-62
2022/08/14 14:05:52;;;;;;;;;;;30.00;79.00;;;;;;5034693;28;19928;-60
2022/08/14 14:08:22;;;;;;;;;;;30.10;79.00;;;;;;5032532;28;19929;-58
2022/08/14 14:11:09;;;;;;;;;;;30.10;78.90;;;;;;5026448;28;19929;-60
2022/08/14 14:13:38;;;;;;;;;;;30.10;78.90;;;;;;5032440;28;19940;-59
2022/08/14 14:16:11;;;;;;;;;;;30.20;78.90;;;;;;5018196;28;19932;-60
2022/08/14 14:19:00;;;;;;;;;;;30.20;78.80;;;;;;5031255;28;19933;-58
2022/08/14 14:21:35;;;;;;;;;;;30.20;78.80;;;;;;5032581;28;19936;-60
2022/08/14 14:24:04;;;;;;;;;;;30.20;78.80;;;;;;5030657;28;19929;-61
2022/08/14 14:26:31;;;;;;;;;;;30.30;78.80;;;;;;5036290;28;20339;-59
2022/08/14 14:29:05;;;;;;;;;;;30.30;78.70;;;;;;5039873;28;19928;-59
2022/08/14 14:31:35;;;;;;;;;;;30.30;78.70;;;;;;5033104;28;19944;-54
2022/08/14 14:34:07;;;;;;;;;;;30.30;78.70;;;;;;5030480;28;19936;-58
2022/08/14 14:36:55;;;;;;;;;;;30.30;78.70;;;;;;5015247;28;19925;-59
2022/08/14 14:39:26;;;;;;;;;;;30.30;78.70;;;;;;5030642;28;19943;-59
2022/08/14 14:41:56;;;;;;;;;;;30.30;78.70;;;;;;5019604;28;19948;-58
2022/08/14 14:44:25;;;;;;;;;;;30.30;78.60;;;;;;5033642;28;19936;-57
2022/08/14 14:46:53;;;;;;;;;;;30.40;78.70;;;;;;5030055;28;19933;-60
2022/08/14 14:49:24;;;;;;;;;;;30.40;78.50;;;;;;5021498;28;20308;-61
2022/08/14 14:52:09;;;;;;;;;;;30.50;78.50;;;;;;5030108;28;19936;-60
2022/08/14 14:54:49;;;;;;;;;;;30.50;78.50;;;;;;5042544;28;20012;-60
2022/08/14 14:57:17;;;;;;;;;;;30.50;78.40;;;;;;5032757;28;20452;-60
2022/08/14 14:59:45;;;;;;;;;;;30.60;78.30;;;;;;5037759;28;19932;-61
2022/08/14 15:02:24;;;;;;;;;;;30.60;78.30;;;;;;5036937;28;20299;-58
2022/08/14 15:04:55;;;;;;;;;;;30.60;78.20;;;;;;5032382;28;19929;-57
2022/08/14 15:07:22;;;;;;;;;;;30.70;78.20;;;;;;5034013;28;20316;-58
2022/08/14 15:09:49;;;;;;;;;;;30.60;78.10;;;;;;5032407;28;19936;-59